sensor_id;sensor_type;location;lat;lon;timestamp;pressure;altitude;pressure_sealevel;temperature;humidity
56456;BME280;42354;53.218;6.564;2023-05-29T00:02:09;46966.75;;;-142.92;89.77
56456;BME280;42354;53.218;6.564;2023-05-29T00:04:40;46956.50;;;-142.92;89.18
56456;BME280;42354;53.218;6.564;2023-05-29T00:07:06;46944.19;;;-142.92;89.24
56456;BME280;42354;53.218;6.564;2023-05-29T00:09:31;46956.50;;;-142.92;89.07
56456;BME280;42354;53.218;6.564;2023-05-29T00:11:56;46946.25;;;-142.92;89.09
56456;BME280;42354;53.218;6.564;2023-05-29T00:14:22;46962.66;;;-142.92;88.78
56456;BME280;42354;53.218;6.564;2023-05-29T00:16:49;46968.81;;;-142.92;88.64
56456;BME280;42354;53.218;6.564;2023-05-29T00:19:15;46962.66;;;-142.92;88.71
56456;BME280;42354;53.218;6.564;2023-05-29T00:21:45;46983.19;;;-142.92;88.58
56456;BME280;42354;53.218;6.564;2023-05-29T00:24:13;46970.88;;;-142.92;88.42
56456;BME280;42354;53.218;6.564;2023-05-29T00:26:39;46964.72;;;-142.92;88.41
56456;BME280;42354;53.218;6.564;2023-05-29T00:29:05;46956.50;;;-142.92;88.33
56456;BME280;42354;53.218;6.564;2023-05-29T00:31:30;46981.13;;;-142.92;88.54
56456;BME280;42354;53.218;6.564;2023-05-29T00:33:55;46958.56;;;-142.92;88.56
56456;BME280;42354;53.218;6.564;2023-05-29T00:36:21;46956.50;;;-142.92;88.48
56456;BME280;42354;53.218;6.564;2023-05-29T00:38:46;46960.59;;;-142.92;88.48
56456;BME280;42354;53.218;6.564;2023-05-29T00:41:15;46958.56;;;-142.92;88.32
56456;BME280;42354;53.218;6.564;2023-05-29T00:43:41;46966.75;;;-142.92;88.53
56456;BME280;42354;53.218;6.564;2023-05-29T00:46:08;46974.97;;;-142.92;88.53
56456;BME280;42354;53.218;6.564;2023-05-29T00:48:33;46950.34;;;-142.92;88.37
56456;BME280;42354;53.218;6.564;2023-05-29T00:50:59;46958.56;;;-142.92;88.24
56456;BME280;42354;53.218;6.564;2023-05-29T00:53:24;46964.72;;;-142.92;88.15
56456;BME280;42354;53.218;6.564;2023-05-29T00:55:51;46970.88;;;-142.92;88.09
56456;BME280;42354;53.218;6.564;2023-05-29T00:58:17;46962.66;;;-142.92;87.84
56456;BME280;42354;53.218;6.564;2023-05-29T01:00:42;46983.19;;;-142.92;87.86
56456;BME280;42354;53.218;6.564;2023-05-29T01:03:08;46962.66;;;-142.92;87.58
56456;BME280;42354;53.218;6.564;2023-05-29T01:05:34;46956.50;;;-142.92;87.41
56456;BME280;42354;53.218;6.564;2023-05-29T01:08:02;46970.88;;;-142.92;87.45
56456;BME280;42354;53.218;6.564;2023-05-29T01:10:28;46954.44;;;-142.92;87.37
56456;BME280;42354;53.218;6.564;2023-05-29T01:13:17;46960.59;;;-142.92;86.74
56456;BME280;42354;53.218;6.564;2023-05-29T01:15:54;46956.50;;;-142.92;86.83
56456;BME280;42354;53.218;6.564;2023-05-29T01:18:54;46954.44;;;-142.92;86.69
56456;BME280;42354;53.218;6.564;2023-05-29T01:22:04;46968.81;;;-142.92;86.64
56456;BME280;42354;53.218;6.564;2023-05-29T01:27:40;46987.28;;;-142.92;86.36
56456;BME280;42354;53.218;6.564;2023-05-29T01:30:10;46979.06;;;-142.92;85.89
56456;BME280;42354;53.218;6.564;2023-05-29T01:32:38;46968.81;;;-142.92;85.89
56456;BME280;42354;53.218;6.564;2023-05-29T01:35:05;46979.06;;;-142.92;85.84
56456;BME280;42354;53.218;6.564;2023-05-29T01:37:32;46962.66;;;-142.92;85.74
56456;BME280;42354;53.218;6.564;2023-05-29T01:39:58;46970.88;;;-142.92;85.80
56456;BME280;42354;53.218;6.564;2023-05-29T01:42:23;46966.75;;;-142.92;85.85
56456;BME280;42354;53.218;6.564;2023-05-29T01:44:49;46958.56;;;-142.92;85.96
56456;BME280;42354;53.218;6.564;2023-05-29T01:47:15;46966.75;;;-142.92;85.85
56456;BME280;42354;53.218;6.564;2023-05-29T01:49:41;46966.75;;;-142.92;85.89
56456;BME280;42354;53.218;6.564;2023-05-29T01:52:09;46960.59;;;-142.92;85.93
56456;BME280;42354;53.218;6.564;2023-05-29T01:54:36;46962.66;;;-142.92;85.89
56456;BME280;42354;53.218;6.564;2023-05-29T01:57:02;46950.34;;;-142.92;85.95
56456;BME280;42354;53.218;6.564;2023-05-29T01:59:31;46966.75;;;-142.92;86.00
56456;BME280;42354;53.218;6.564;2023-05-29T02:01:57;46970.88;;;-142.92;86.10
56456;BME280;42354;53.218;6.564;2023-05-29T02:04:22;46958.56;;;-142.92;86.18
56456;BME280;42354;53.218;6.564;2023-05-29T02:06:48;46968.81;;;-142.92;86.34
56456;BME280;42354;53.218;6.564;2023-05-29T02:09:13;46956.50;;;-142.92;86.47
56456;BME280;42354;53.218;6.564;2023-05-29T02:11:39;46966.75;;;-142.92;86.66
56456;BME280;42354;53.218;6.564;2023-05-29T02:14:09;46970.88;;;-142.92;86.85
56456;BME280;42354;53.218;6.564;2023-05-29T02:16:35;46956.50;;;-142.92;86.92
56456;BME280;42354;53.218;6.564;2023-05-29T02:19:01;46954.44;;;-142.92;87.19
56456;BME280;42354;53.218;6.564;2023-05-29T02:21:27;46962.66;;;-142.92;87.40
56456;BME280;42354;53.218;6.564;2023-05-29T02:23:52;46972.91;;;-142.92;87.54
56456;BME280;42354;53.218;6.564;2023-05-29T02:26:17;46974.97;;;-142.92;87.80
56456;BME280;42354;53.218;6.564;2023-05-29T02:28:44;46987.28;;;-142.92;87.79
56456;BME280;42354;53.218;6.564;2023-05-29T02:31:09;46960.59;;;-142.92;87.86
56456;BME280;42354;53.218;6.564;2023-05-29T02:33:35;46979.06;;;-142.92;87.82
56456;BME280;42354;53.218;6.564;2023-05-29T02:36:00;46962.66;;;-142.92;88.27
56456;BME280;42354;53.218;6.564;2023-05-29T02:38:26;46970.88;;;-142.92;88.06
56456;BME280;42354;53.218;6.564;2023-05-29T02:40:51;46970.88;;;-142.92;88.21
56456;BME280;42354;53.218;6.564;2023-05-29T02:43:17;46962.66;;;-142.92;88.07
56456;BME280;42354;53.218;6.564;2023-05-29T02:45:42;46948.28;;;-142.92;87.93
56456;BME280;42354;53.218;6.564;2023-05-29T02:48:07;46970.88;;;-142.92;87.72
56456;BME280;42354;53.218;6.564;2023-05-29T02:50:33;46946.25;;;-142.92;87.74
56456;BME280;42354;53.218;6.564;2023-05-29T02:52:58;46968.81;;;-142.92;87.40
56456;BME280;42354;53.218;6.564;2023-05-29T02:55:23;46968.81;;;-142.92;86.99
56456;BME280;42354;53.218;6.564;2023-05-29T02:57:49;46960.59;;;-142.92;86.98
56456;BME280;42354;53.218;6.564;2023-05-29T03:00:18;46972.91;;;-142.92;86.36
56456;BME280;42354;53.218;6.564;2023-05-29T03:02:46;46966.75;;;-142.92;85.82
56456;BME280;42354;53.218;6.564;2023-05-29T03:05:12;46995.50;;;-142.92;85.30
56456;BME280;42354;53.218;6.564;2023-05-29T03:07:37;46993.44;;;-142.92;85.04
56456;BME280;42354;53.218;6.564;2023-05-29T03:10:02;46977.03;;;-142.92;84.84
56456;BME280;42354;53.218;6.564;2023-05-29T03:12:29;46972.91;;;-142.92;84.72
56456;BME280;42354;53.218;6.564;2023-05-29T03:14:54;46970.88;;;-142.92;84.51
56456;BME280;42354;53.218;6.564;2023-05-29T03:17:21;46958.56;;;-142.92;84.23
56456;BME280;42354;53.218;6.564;2023-05-29T03:19:47;46970.88;;;-142.92;83.97
56456;BME280;42354;53.218;6.564;2023-05-29T03:22:12;46966.75;;;-142.92;83.73
56456;BME280;42354;53.218;6.564;2023-05-29T03:24:37;46985.22;;;-142.92;83.56
56456;BME280;42354;53.218;6.564;2023-05-29T03:27:03;46974.97;;;-142.92;83.23
56456;BME280;42354;53.218;6.564;2023-05-29T03:29:31;46970.88;;;-142.92;82.78
56456;BME280;42354;53.218;6.564;2023-05-29T03:31:56;46970.88;;;-142.92;82.28
56456;BME280;42354;53.218;6.564;2023-05-29T03:34:22;46962.66;;;-142.92;82.10
56456;BME280;42354;53.218;6.564;2023-05-29T03:36:47;46974.97;;;-142.92;82.19
56456;BME280;42354;53.218;6.564;2023-05-29T03:39:12;46962.66;;;-142.92;81.67
56456;BME280;42354;53.218;6.564;2023-05-29T03:41:38;46938.03;;;-142.92;81.25
56456;BME280;42354;53.218;6.564;2023-05-29T03:44:04;46993.44;;;-142.92;81.17
56456;BME280;42354;53.218;6.564;2023-05-29T03:46:30;46987.28;;;-142.92;80.70
56456;BME280;42354;53.218;6.564;2023-05-29T03:48:56;46966.75;;;-142.92;80.38
56456;BME280;42354;53.218;6.564;2023-05-29T03:51:21;46964.72;;;-142.92;80.15
56456;BME280;42354;53.218;6.564;2023-05-29T03:53:47;46970.88;;;-142.92;79.61
56456;BME280;42354;53.218;6.564;2023-05-29T03:56:12;46981.13;;;-142.92;79.20
56456;BME280;42354;53.218;6.564;2023-05-29T03:58:37;46958.56;;;-142.92;78.93
56456;BME280;42354;53.218;6.564;2023-05-29T04:01:03;46977.03;;;-142.92;78.46
56456;BME280;42354;53.218;6.564;2023-05-29T04:03:29;46960.59;;;-142.92;77.85
56456;BME280;42354;53.218;6.564;2023-05-29T04:05:55;46954.44;;;-142.92;77.27
56456;BME280;42354;53.218;6.564;2023-05-29T04:08:20;46974.97;;;-142.92;76.95
56456;BME280;42354;53.218;6.564;2023-05-29T04:10:46;46960.59;;;-142.92;76.33
56456;BME280;42354;53.218;6.564;2023-05-29T04:13:11;46979.06;;;-142.92;76.06
56456;BME280;42354;53.218;6.564;2023-05-29T04:15:37;46972.91;;;-142.92;75.80
56456;BME280;42354;53.218;6.564;2023-05-29T04:18:03;46977.03;;;-142.92;75.45
56456;BME280;42354;53.218;6.564;2023-05-29T04:20:28;46966.75;;;-142.92;75.11
56456;BME280;42354;53.218;6.564;2023-05-29T04:22:54;46970.88;;;-142.92;74.92
56456;BME280;42354;53.218;6.564;2023-05-29T04:25:19;46964.72;;;-142.92;74.74
56456;BME280;42354;53.218;6.564;2023-05-29T04:27:45;46964.72;;;-142.92;74.63
56456;BME280;42354;53.218;6.564;2023-05-29T04:30:14;46972.91;;;-142.92;74.49
56456;BME280;42354;53.218;6.564;2023-05-29T04:32:39;46968.81;;;-142.92;74.32
56456;BME280;42354;53.218;6.564;2023-05-29T04:35:05;46966.75;;;-142.92;74.20
56456;BME280;42354;53.218;6.564;2023-05-29T04:37:32;46972.91;;;-142.92;74.13
56456;BME280;42354;53.218;6.564;2023-05-29T04:40:04;46974.97;;;-142.92;73.83
56456;BME280;42354;53.218;6.564;2023-05-29T04:42:33;46968.81;;;-142.92;73.74
56456;BME280;42354;53.218;6.564;2023-05-29T04:45:00;46966.75;;;-142.92;73.16
56456;BME280;42354;53.218;6.564;2023-05-29T04:47:25;46970.88;;;-142.92;73.03
56456;BME280;42354;53.218;6.564;2023-05-29T04:49:51;46979.06;;;-142.92;72.97
56456;BME280;42354;53.218;6.564;2023-05-29T04:52:17;46993.44;;;-142.92;72.68
56456;BME280;42354;53.218;6.564;2023-05-29T04:54:42;46962.66;;;-142.92;72.03
56456;BME280;42354;53.218;6.564;2023-05-29T04:57:08;46979.06;;;-142.92;71.80
56456;BME280;42354;53.218;6.564;2023-05-29T04:59:34;46987.28;;;-142.92;71.34
56456;BME280;42354;53.218;6.564;2023-05-29T05:02:00;46981.13;;;-142.92;70.91
56456;BME280;42354;53.218;6.564;2023-05-29T05:04:25;46977.03;;;-142.92;70.43
56456;BME280;42354;53.218;6.564;2023-05-29T05:06:50;46977.03;;;-142.92;70.38
56456;BME280;42354;53.218;6.564;2023-05-29T05:09:16;46985.22;;;-142.92;70.13
56456;BME280;42354;53.218;6.564;2023-05-29T05:11:42;46964.72;;;-142.92;69.81
56456;BME280;42354;53.218;6.564;2023-05-29T05:14:08;46972.91;;;-142.92;69.69
56456;BME280;42354;53.218;6.564;2023-05-29T05:16:33;46960.59;;;-142.92;69.59
56456;BME280;42354;53.218;6.564;2023-05-29T05:18:59;46979.06;;;-142.92;69.32
56456;BME280;42354;53.218;6.564;2023-05-29T05:21:24;46983.19;;;-142.92;68.98
56456;BME280;42354;53.218;6.564;2023-05-29T05:23:49;46966.75;;;-142.92;68.84
56456;BME280;42354;53.218;6.564;2023-05-29T05:26:15;46966.75;;;-142.92;68.31
56456;BME280;42354;53.218;6.564;2023-05-29T05:28:40;46974.97;;;-142.92;67.78
56456;BME280;42354;53.218;6.564;2023-05-29T05:31:05;46983.19;;;-142.92;67.57
56456;BME280;42354;53.218;6.564;2023-05-29T05:33:31;46974.97;;;-142.92;67.87
56456;BME280;42354;53.218;6.564;2023-05-29T05:35:56;46981.13;;;-142.92;67.42
56456;BME280;42354;53.218;6.564;2023-05-29T05:38:22;46981.13;;;-142.92;66.80
56456;BME280;42354;53.218;6.564;2023-05-29T05:40:47;46962.66;;;-142.92;65.74
56456;BME280;42354;53.218;6.564;2023-05-29T05:43:12;46987.28;;;-142.92;65.96
56456;BME280;42354;53.218;6.564;2023-05-29T05:45:38;46974.97;;;-142.92;65.71
56456;BME280;42354;53.218;6.564;2023-05-29T05:48:08;46962.66;;;-142.92;65.79
56456;BME280;42354;53.218;6.564;2023-05-29T05:50:34;46977.03;;;-142.92;65.84
56456;BME280;42354;53.218;6.564;2023-05-29T05:52:59;46979.06;;;-142.92;65.40
56456;BME280;42354;53.218;6.564;2023-05-29T05:55:24;46989.34;;;-142.92;64.83
56456;BME280;42354;53.218;6.564;2023-05-29T05:57:51;46985.22;;;-142.92;63.91
56456;BME280;42354;53.218;6.564;2023-05-29T06:00:17;46962.66;;;-142.92;63.47
56456;BME280;42354;53.218;6.564;2023-05-29T06:02:42;46966.75;;;-142.92;63.45
56456;BME280;42354;53.218;6.564;2023-05-29T06:05:10;46974.97;;;-142.92;63.66
56456;BME280;42354;53.218;6.564;2023-05-29T06:07:37;46966.75;;;-142.92;63.59
56456;BME280;42354;53.218;6.564;2023-05-29T06:10:03;46977.03;;;-142.92;63.39
56456;BME280;42354;53.218;6.564;2023-05-29T06:12:29;46981.13;;;-142.92;63.35
56456;BME280;42354;53.218;6.564;2023-05-29T06:14:54;46970.88;;;-142.92;62.99
56456;BME280;42354;53.218;6.564;2023-05-29T06:17:20;46983.19;;;-142.92;62.56
56456;BME280;42354;53.218;6.564;2023-05-29T06:19:46;46979.06;;;-142.92;62.10
56456;BME280;42354;53.218;6.564;2023-05-29T06:22:12;46981.13;;;-142.92;60.94
56456;BME280;42354;53.218;6.564;2023-05-29T06:24:37;46983.19;;;-142.92;59.42
56456;BME280;42354;53.218;6.564;2023-05-29T06:27:02;46981.13;;;-142.92;59.14
56456;BME280;42354;53.218;6.564;2023-05-29T06:29:28;46974.97;;;-142.92;57.94
56456;BME280;42354;53.218;6.564;2023-05-29T06:31:53;46989.34;;;-142.92;58.08
56456;BME280;42354;53.218;6.564;2023-05-29T06:34:19;46981.13;;;-142.92;58.03
56456;BME280;42354;53.218;6.564;2023-05-29T06:36:44;46987.28;;;-142.92;58.66
56456;BME280;42354;53.218;6.564;2023-05-29T06:39:09;46989.34;;;-142.92;58.97
56456;BME280;42354;53.218;6.564;2023-05-29T06:41:35;46974.97;;;-142.92;59.03
56456;BME280;42354;53.218;6.564;2023-05-29T06:44:01;46983.19;;;-142.92;58.91
56456;BME280;42354;53.218;6.564;2023-05-29T06:46:26;46958.56;;;-142.92;58.82
56456;BME280;42354;53.218;6.564;2023-05-29T06:48:51;46970.88;;;-142.92;59.21
56456;BME280;42354;53.218;6.564;2023-05-29T06:51:17;46974.97;;;-142.92;58.77
56456;BME280;42354;53.218;6.564;2023-05-29T06:53:42;46987.28;;;-142.92;58.94
56456;BME280;42354;53.218;6.564;2023-05-29T06:56:08;46977.03;;;-142.92;58.44
56456;BME280;42354;53.218;6.564;2023-05-29T06:58:34;46979.06;;;-142.92;58.69
56456;BME280;42354;53.218;6.564;2023-05-29T07:00:59;46991.38;;;-142.92;58.29
56456;BME280;42354;53.218;6.564;2023-05-29T07:03:25;46972.91;;;-142.92;58.40
56456;BME280;42354;53.218;6.564;2023-05-29T07:05:51;46970.88;;;-142.92;58.24
56456;BME280;42354;53.218;6.564;2023-05-29T07:08:18;46979.06;;;-142.92;58.03
56456;BME280;42354;53.218;6.564;2023-05-29T07:10:44;46956.50;;;-142.92;58.55
56456;BME280;42354;53.218;6.564;2023-05-29T07:13:09;46981.13;;;-142.92;58.59
56456;BME280;42354;53.218;6.564;2023-05-29T07:15:37;46954.44;;;-142.92;58.23
56456;BME280;42354;53.218;6.564;2023-05-29T07:18:02;46956.50;;;-142.92;58.03
56456;BME280;42354;53.218;6.564;2023-05-29T07:20:28;46964.72;;;-142.92;57.46
56456;BME280;42354;53.218;6.564;2023-05-29T07:22:53;46983.19;;;-142.92;57.30
56456;BME280;42354;53.218;6.564;2023-05-29T07:25:18;46970.88;;;-142.92;56.89
56456;BME280;42354;53.218;6.564;2023-05-29T07:27:44;46991.38;;;-142.92;56.30
56456;BME280;42354;53.218;6.564;2023-05-29T07:30:09;46970.88;;;-142.92;55.92
56456;BME280;42354;53.218;6.564;2023-05-29T07:32:35;46977.03;;;-142.92;54.83
56456;BME280;42354;53.218;6.564;2023-05-29T07:35:00;46964.72;;;-142.92;54.75
56456;BME280;42354;53.218;6.564;2023-05-29T07:37:26;46979.06;;;-142.92;54.45
56456;BME280;42354;53.218;6.564;2023-05-29T07:39:51;46983.19;;;-142.92;53.62
56456;BME280;42354;53.218;6.564;2023-05-29T07:42:17;46974.97;;;-142.92;53.67
56456;BME280;42354;53.218;6.564;2023-05-29T07:44:42;46981.13;;;-142.92;53.73
56456;BME280;42354;53.218;6.564;2023-05-29T07:47:11;46966.75;;;-142.92;54.66
56456;BME280;42354;53.218;6.564;2023-05-29T07:49:37;46964.72;;;-142.92;55.19
56456;BME280;42354;53.218;6.564;2023-05-29T07:52:03;46985.22;;;-142.92;54.89
56456;BME280;42354;53.218;6.564;2023-05-29T07:54:30;46972.91;;;-142.92;52.59
56456;BME280;42354;53.218;6.564;2023-05-29T07:56:58;46987.28;;;-142.92;52.18
56456;BME280;42354;53.218;6.564;2023-05-29T07:59:23;46966.75;;;-142.92;51.89
56456;BME280;42354;53.218;6.564;2023-05-29T08:01:48;46985.22;;;-142.92;52.52
56456;BME280;42354;53.218;6.564;2023-05-29T08:04:15;46972.91;;;-142.92;52.30
56456;BME280;42354;53.218;6.564;2023-05-29T08:06:41;46974.97;;;-142.92;52.46
56456;BME280;42354;53.218;6.564;2023-05-29T08:09:10;46966.75;;;-142.92;52.04
56456;BME280;42354;53.218;6.564;2023-05-29T08:11:38;46985.22;;;-142.92;50.98
56456;BME280;42354;53.218;6.564;2023-05-29T08:14:03;46974.97;;;-142.92;50.81
56456;BME280;42354;53.218;6.564;2023-05-29T08:16:29;46964.72;;;-142.92;50.57
56456;BME280;42354;53.218;6.564;2023-05-29T08:18:54;46974.97;;;-142.92;50.57
56456;BME280;42354;53.218;6.564;2023-05-29T08:21:20;46985.22;;;-142.92;51.10
56456;BME280;42354;53.218;6.564;2023-05-29T08:23:45;46974.97;;;-142.92;51.77
56456;BME280;42354;53.218;6.564;2023-05-29T08:26:11;46979.06;;;-142.92;51.64
56456;BME280;42354;53.218;6.564;2023-05-29T08:28:37;46985.22;;;-142.92;50.64
56456;BME280;42354;53.218;6.564;2023-05-29T08:31:03;46958.56;;;-142.92;49.74
56456;BME280;42354;53.218;6.564;2023-05-29T08:33:28;46974.97;;;-142.92;50.28
56456;BME280;42354;53.218;6.564;2023-05-29T08:35:57;46966.75;;;-142.92;50.14
56456;BME280;42354;53.218;6.564;2023-05-29T08:38:22;46987.28;;;-142.92;50.80
56456;BME280;42354;53.218;6.564;2023-05-29T08:40:50;46968.81;;;-142.92;50.57
56456;BME280;42354;53.218;6.564;2023-05-29T08:43:20;46972.91;;;-142.92;51.12
56456;BME280;42354;53.218;6.564;2023-05-29T08:45:52;46974.97;;;-142.92;51.72
56456;BME280;42354;53.218;6.564;2023-05-29T08:48:22;46993.44;;;-142.92;52.22
56456;BME280;42354;53.218;6.564;2023-05-29T08:50:49;46977.03;;;-142.92;51.98
56456;BME280;42354;53.218;6.564;2023-05-29T08:53:17;46970.88;;;-142.92;52.21
56456;BME280;42354;53.218;6.564;2023-05-29T08:55:44;46979.06;;;-142.92;52.86
56456;BME280;42354;53.218;6.564;2023-05-29T08:58:13;46974.97;;;-142.92;53.30
56456;BME280;42354;53.218;6.564;2023-05-29T09:00:39;46987.28;;;-142.92;53.24
56456;BME280;42354;53.218;6.564;2023-05-29T09:03:07;46979.06;;;-142.92;52.87
56456;BME280;42354;53.218;6.564;2023-05-29T09:05:34;46970.88;;;-142.92;52.90
56456;BME280;42354;53.218;6.564;2023-05-29T09:08:04;46983.19;;;-142.92;53.24
56456;BME280;42354;53.218;6.564;2023-05-29T09:10:30;46974.97;;;-142.92;53.12
56456;BME280;42354;53.218;6.564;2023-05-29T09:12:55;46981.13;;;-142.92;50.10
56456;BME280;42354;53.218;6.564;2023-05-29T09:15:22;46974.97;;;-142.92;49.51
56456;BME280;42354;53.218;6.564;2023-05-29T09:17:55;46968.81;;;-142.92;49.94
56456;BME280;42354;53.218;6.564;2023-05-29T09:20:22;46985.22;;;-142.92;49.02
56456;BME280;42354;53.218;6.564;2023-05-29T09:25:22;46979.06;;;-142.92;46.84
56456;BME280;42354;53.218;6.564;2023-05-29T09:27:51;46974.97;;;-142.92;46.33
56456;BME280;42354;53.218;6.564;2023-05-29T09:33:05;46962.66;;;-142.92;46.27
56456;BME280;42354;53.218;6.564;2023-05-29T09:35:39;46960.59;;;-142.92;47.72
56456;BME280;42354;53.218;6.564;2023-05-29T09:38:07;46981.13;;;-142.92;47.65
56456;BME280;42354;53.218;6.564;2023-05-29T09:40:33;46970.88;;;-142.92;47.25
56456;BME280;42354;53.218;6.564;2023-05-29T09:43:16;46970.88;;;-142.92;47.16
56456;BME280;42354;53.218;6.564;2023-05-29T09:45:47;46962.66;;;-142.92;46.50
56456;BME280;42354;53.218;6.564;2023-05-29T09:48:18;46970.88;;;-142.92;45.84
56456;BME280;42354;53.218;6.564;2023-05-29T09:50:44;46962.66;;;-142.92;46.93
56456;BME280;42354;53.218;6.564;2023-05-29T09:53:23;46972.91;;;-142.92;48.54
56456;BME280;42354;53.218;6.564;2023-05-29T09:55:50;46991.38;;;-142.92;46.71
56456;BME280;42354;53.218;6.564;2023-05-29T09:58:20;46983.19;;;-142.92;45.96
56456;BME280;42354;53.218;6.564;2023-05-29T10:00:46;46977.03;;;-142.92;45.71
56456;BME280;42354;53.218;6.564;2023-05-29T10:03:12;46974.97;;;-142.92;46.05
56456;BME280;42354;53.218;6.564;2023-05-29T10:05:39;46987.28;;;-142.92;45.98
56456;BME280;42354;53.218;6.564;2023-05-29T10:08:07;46999.59;;;-142.92;45.06
56456;BME280;42354;53.218;6.564;2023-05-29T10:10:34;46972.91;;;-142.92;45.54
56456;BME280;42354;53.218;6.564;2023-05-29T10:13:01;46987.28;;;-142.92;44.95
56456;BME280;42354;53.218;6.564;2023-05-29T10:15:30;46983.19;;;-142.92;44.40
56456;BME280;42354;53.218;6.564;2023-05-29T10:18:02;46974.97;;;-142.92;44.10
56456;BME280;42354;53.218;6.564;2023-05-29T10:20:29;46981.13;;;-142.92;44.11
56456;BME280;42354;53.218;6.564;2023-05-29T10:23:00;46983.19;;;-142.92;44.45
56456;BME280;42354;53.218;6.564;2023-05-29T10:25:29;46968.81;;;-142.92;44.44
56456;BME280;42354;53.218;6.564;2023-05-29T10:27:56;46974.97;;;-142.92;44.35
56456;BME280;42354;53.218;6.564;2023-05-29T10:30:43;46968.81;;;-142.92;43.34
56456;BME280;42354;53.218;6.564;2023-05-29T10:36:13;46974.97;;;-142.92;43.05
56456;BME280;42354;53.218;6.564;2023-05-29T10:38:44;46968.81;;;-142.92;43.22
56456;BME280;42354;53.218;6.564;2023-05-29T10:43:58;46981.13;;;-142.92;44.29
56456;BME280;42354;53.218;6.564;2023-05-29T10:49:19;46962.66;;;-142.92;44.50
56456;BME280;42354;53.218;6.564;2023-05-29T10:51:45;46950.34;;;-142.92;44.61
56456;BME280;42354;53.218;6.564;2023-05-29T10:54:11;46991.38;;;-142.92;44.49
56456;BME280;42354;53.218;6.564;2023-05-29T10:56:39;46954.44;;;-142.92;44.73
56456;BME280;42354;53.218;6.564;2023-05-29T10:59:07;46985.22;;;-142.92;44.55
56456;BME280;42354;53.218;6.564;2023-05-29T11:01:33;46962.66;;;-142.92;43.99
56456;BME280;42354;53.218;6.564;2023-05-29T11:06:43;46958.56;;;-142.92;45.53
56456;BME280;42354;53.218;6.564;2023-05-29T11:09:29;46970.88;;;-142.92;44.67
56456;BME280;42354;53.218;6.564;2023-05-29T11:12:14;46972.91;;;-142.92;44.39
56456;BME280;42354;53.218;6.564;2023-05-29T11:14:59;46983.19;;;-142.92;43.93
56456;BME280;42354;53.218;6.564;2023-05-29T11:17:31;46964.72;;;-142.92;43.56
56456;BME280;42354;53.218;6.564;2023-05-29T11:20:00;46966.75;;;-142.92;44.18
56456;BME280;42354;53.218;6.564;2023-05-29T11:22:32;46954.44;;;-142.92;45.17
56456;BME280;42354;53.218;6.564;2023-05-29T11:24:59;46962.66;;;-142.92;45.45
56456;BME280;42354;53.218;6.564;2023-05-29T11:27:25;46954.44;;;-142.92;46.46
56456;BME280;42354;53.218;6.564;2023-05-29T11:29:51;46960.59;;;-142.92;46.90
56456;BME280;42354;53.218;6.564;2023-05-29T11:32:21;46966.75;;;-142.92;46.09
56456;BME280;42354;53.218;6.564;2023-05-29T11:34:49;46972.91;;;-142.92;45.22
56456;BME280;42354;53.218;6.564;2023-05-29T11:37:17;46974.97;;;-142.92;44.40
56456;BME280;42354;53.218;6.564;2023-05-29T11:39:42;46972.91;;;-142.92;44.64
56456;BME280;42354;53.218;6.564;2023-05-29T11:42:08;46970.88;;;-142.92;44.51
56456;BME280;42354;53.218;6.564;2023-05-29T11:44:33;46964.72;;;-142.92;44.94
56456;BME280;42354;53.218;6.564;2023-05-29T11:47:08;46970.88;;;-142.92;43.39
56456;BME280;42354;53.218;6.564;2023-05-29T11:49:35;46954.44;;;-142.92;42.71
56456;BME280;42354;53.218;6.564;2023-05-29T11:52:09;46958.56;;;-142.92;41.74
56456;BME280;42354;53.218;6.564;2023-05-29T11:54:34;46983.19;;;-142.92;41.52
56456;BME280;42354;53.218;6.564;2023-05-29T11:57:01;46962.66;;;-142.92;41.53
56456;BME280;42354;53.218;6.564;2023-05-29T11:59:34;46979.06;;;-142.92;41.88
56456;BME280;42354;53.218;6.564;2023-05-29T12:02:02;46946.25;;;-142.92;42.68
56456;BME280;42354;53.218;6.564;2023-05-29T12:04:29;46958.56;;;-142.92;43.81
56456;BME280;42354;53.218;6.564;2023-05-29T12:06:55;46968.81;;;-142.92;43.39
56456;BME280;42354;53.218;6.564;2023-05-29T12:09:28;46950.34;;;-142.92;43.88
56456;BME280;42354;53.218;6.564;2023-05-29T12:12:03;46966.75;;;-142.92;43.11
56456;BME280;42354;53.218;6.564;2023-05-29T12:14:29;46972.91;;;-142.92;42.62
56456;BME280;42354;53.218;6.564;2023-05-29T12:16:55;46970.88;;;-142.92;42.43
56456;BME280;42354;53.218;6.564;2023-05-29T12:19:20;46970.88;;;-142.92;42.69
56456;BME280;42354;53.218;6.564;2023-05-29T12:21:48;46985.22;;;-142.92;42.53
56456;BME280;42354;53.218;6.564;2023-05-29T12:24:13;46968.81;;;-142.92;42.13
56456;BME280;42354;53.218;6.564;2023-05-29T12:26:39;46970.88;;;-142.92;42.20
56456;BME280;42354;53.218;6.564;2023-05-29T12:29:05;46958.56;;;-142.92;42.11
56456;BME280;42354;53.218;6.564;2023-05-29T12:31:31;46983.19;;;-142.92;42.33
56456;BME280;42354;53.218;6.564;2023-05-29T12:34:01;46970.88;;;-142.92;41.52
56456;BME280;42354;53.218;6.564;2023-05-29T12:36:27;46977.03;;;-142.92;40.55
56456;BME280;42354;53.218;6.564;2023-05-29T12:38:52;46966.75;;;-142.92;40.87
56456;BME280;42354;53.218;6.564;2023-05-29T12:41:25;46979.06;;;-142.92;40.27
56456;BME280;42354;53.218;6.564;2023-05-29T12:43:56;46964.72;;;-142.92;41.66
56456;BME280;42354;53.218;6.564;2023-05-29T12:46:26;46956.50;;;-142.92;41.23
56456;BME280;42354;53.218;6.564;2023-05-29T12:48:55;46962.66;;;-142.92;41.14
56456;BME280;42354;53.218;6.564;2023-05-29T12:51:27;46981.13;;;-142.92;40.04
56456;BME280;42354;53.218;6.564;2023-05-29T12:53:53;46960.59;;;-142.92;39.38
56456;BME280;42354;53.218;6.564;2023-05-29T12:56:23;46983.19;;;-142.92;39.89
56456;BME280;42354;53.218;6.564;2023-05-29T12:58:51;46974.97;;;-142.92;39.22
56456;BME280;42354;53.218;6.564;2023-05-29T13:01:17;46974.97;;;-142.92;38.80